createdAt,value
2022-10-31T00:00:05.656Z,92.08
2022-10-31T00:01:05.705Z,92.18
2022-10-31T00:02:05.659Z,92.17
2022-10-31T00:03:05.615Z,92.08
2022-10-31T00:04:05.579Z,91.99
2022-10-31T00:05:05.685Z,91.82
2022-10-31T00:06:05.537Z,91.84
2022-10-31T00:07:05.544Z,91.96
2022-10-31T00:08:05.513Z,92.00
2022-10-31T00:09:05.566Z,92.08
2022-10-31T00:10:05.483Z,92.14
2022-10-31T00:11:05.534Z,92.20
2022-10-31T00:12:05.453Z,92.21
2022-10-31T00:13:05.497Z,92.22
2022-10-31T00:14:05.453Z,92.29
2022-10-31T00:15:05.508Z,92.15
2022-10-31T00:16:05.408Z,91.98
2022-10-31T00:17:05.474Z,91.94
2022-10-31T00:18:05.384Z,91.93
2022-10-31T00:19:05.423Z,92.04
2022-10-31T00:20:05.353Z,92.10
2022-10-31T00:21:05.443Z,92.05
2022-10-31T00:22:05.313Z,92.12
2022-10-31T00:23:05.414Z,92.13
2022-10-31T00:24:05.310Z,92.04
2022-10-31T00:25:06.395Z,92.01
2022-10-31T00:26:05.272Z,92.05
2022-10-31T00:27:05.286Z,92.16
2022-10-31T00:28:05.309Z,92.13
2022-10-31T00:29:05.353Z,92.25
2022-10-31T00:30:05.214Z,92.19
2022-10-31T00:31:05.321Z,92.11
2022-10-31T00:32:05.195Z,92.07
2022-10-31T00:33:05.227Z,91.96
2022-10-31T00:34:05.163Z,91.85
2022-10-31T00:35:05.194Z,91.93
2022-10-31T00:36:05.157Z,92.06
2022-10-31T00:37:05.153Z,92.15
2022-10-31T00:38:05.132Z,92.25
2022-10-31T00:39:05.163Z,92.10
2022-10-31T00:40:05.087Z,92.11
2022-10-31T00:41:05.133Z,91.99
2022-10-31T00:42:05.055Z,91.95
2022-10-31T00:43:06.167Z,92.04
2022-10-31T00:44:05.025Z,92.12
2022-10-31T00:45:05.107Z,92.15
2022-10-31T00:46:05.005Z,92.11
2022-10-31T00:47:05.064Z,92.13
2022-10-31T00:48:04.985Z,92.04
2022-10-31T00:49:05.034Z,92.07
2022-10-31T00:50:04.955Z,91.93
2022-10-31T00:51:05.043Z,91.54
2022-10-31T00:52:04.923Z,91.53
2022-10-31T00:53:05.005Z,91.46
2022-10-31T00:54:04.905Z,91.49
2022-10-31T00:55:04.986Z,91.54
2022-10-31T00:56:04.874Z,91.66
2022-10-31T00:57:04.886Z,91.40
2022-10-31T00:58:05.277Z,91.21
2022-10-31T00:59:04.953Z,91.39
2022-10-31T01:00:04.815Z,91.51
2022-10-31T01:01:26.004Z,91.32
2022-10-31T01:02:04.869Z,91.25
2022-10-31T01:03:04.824Z,91.43
2022-10-31T01:04:04.766Z,91.43
2022-10-31T01:05:05.824Z,91.46
2022-10-31T01:06:04.744Z,91.27
2022-10-31T01:07:05.775Z,91.30
2022-10-31T01:08:04.713Z,91.09
2022-10-31T01:09:04.772Z,90.94
2022-10-31T01:10:04.685Z,91.06
2022-10-31T01:11:04.742Z,91.02
2022-10-31T01:12:04.661Z,91.23
2022-10-31T01:13:05.725Z,91.36
2022-10-31T01:14:04.633Z,91.47
2022-10-31T01:15:04.714Z,91.57
2022-10-31T01:16:04.609Z,91.78
2022-10-31T01:17:08.878Z,91.78
2022-10-31T01:18:04.592Z,91.76
2022-10-31T01:19:04.637Z,91.59
2022-10-31T01:20:04.555Z,91.65
2022-10-31T01:21:04.647Z,91.57
2022-10-31T01:22:04.533Z,91.51
2022-10-31T01:23:04.615Z,91.54
2022-10-31T01:24:04.499Z,91.54
2022-10-31T01:25:04.578Z,91.49
2022-10-31T01:26:04.483Z,91.61
2022-10-31T01:27:04.487Z,91.66
2022-10-31T01:28:04.458Z,91.70
2022-10-31T01:29:04.564Z,91.74
2022-10-31T01:30:04.416Z,91.78
2022-10-31T01:31:04.521Z,91.81
2022-10-31T01:32:04.394Z,91.79
2022-10-31T01:33:04.435Z,91.81
2022-10-31T01:34:04.366Z,91.85
2022-10-31T01:35:04.405Z,91.79
2022-10-31T01:36:04.346Z,91.69
2022-10-31T01:37:04.363Z,91.80
2022-10-31T01:38:04.314Z,91.80
2022-10-31T01:39:04.372Z,91.83
2022-10-31T01:40:04.286Z,91.81
2022-10-31T01:41:04.334Z,91.79
2022-10-31T01:42:04.256Z,91.71
2022-10-31T01:43:04.357Z,91.90
2022-10-31T01:44:04.235Z,92.11
2022-10-31T01:45:04.313Z,92.20
2022-10-31T01:46:04.206Z,92.20
2022-10-31T01:47:05.306Z,92.19
2022-10-31T01:48:04.175Z,92.25
2022-10-31T01:49:05.267Z,92.26
2022-10-31T01:50:04.152Z,92.23
2022-10-31T01:51:04.254Z,92.14
2022-10-31T01:52:04.140Z,92.07
2022-10-31T01:53:04.214Z,91.95
2022-10-31T01:54:04.099Z,92.05
2022-10-31T01:55:04.184Z,92.10
2022-10-31T01:56:04.076Z,91.89
2022-10-31T01:57:04.097Z,91.80
2022-10-31T01:58:04.296Z,91.89
2022-10-31T01:59:04.165Z,91.94
2022-10-31T02:00:04.023Z,92.03
2022-10-31T02:01:07.632Z,92.18
2022-10-31T02:02:04.188Z,92.24
2022-10-31T02:03:04.294Z,92.29
2022-10-31T02:04:03.966Z,92.38
2022-10-31T02:05:04.007Z,92.43
2022-10-31T02:06:03.949Z,92.49
2022-10-31T02:07:03.975Z,92.58
2022-10-31T02:08:03.906Z,92.64
2022-10-31T02:09:03.975Z,92.64
2022-10-31T02:10:03.887Z,92.59
2022-10-31T02:11:03.945Z,92.49
2022-10-31T02:12:03.857Z,92.44
2022-10-31T02:13:04.009Z,92.43
2022-10-31T02:14:03.837Z,92.56
2022-10-31T02:15:03.917Z,92.60
2022-10-31T02:16:03.824Z,92.52
2022-10-31T02:17:04.906Z,92.42
2022-10-31T02:18:03.945Z,92.49
2022-10-31T02:19:03.856Z,92.49
2022-10-31T02:20:03.755Z,92.42
2022-10-31T02:21:03.861Z,92.18
2022-10-31T02:22:03.728Z,92.15
2022-10-31T02:23:03.829Z,92.24
2022-10-31T02:24:03.689Z,92.27
2022-10-31T02:25:03.795Z,92.14
2022-10-31T02:26:03.679Z,92.09
2022-10-31T02:27:03.729Z,92.10
2022-10-31T02:28:04.157Z,92.11
2022-10-31T02:29:03.772Z,92.06
2022-10-31T02:30:03.625Z,91.87
2022-10-31T02:31:03.623Z,91.83
2022-10-31T02:32:03.596Z,91.91
2022-10-31T02:33:04.020Z,92.03
2022-10-31T02:34:03.563Z,92.20
2022-10-31T02:35:03.599Z,92.16
2022-10-31T02:36:03.546Z,92.16
2022-10-31T02:37:03.566Z,92.06
2022-10-31T02:38:03.506Z,91.95
2022-10-31T02:39:03.576Z,91.90
2022-10-31T02:40:03.487Z,92.13
2022-10-31T02:41:03.549Z,92.21
2022-10-31T02:42:03.456Z,92.25
2022-10-31T02:43:04.130Z,92.16
2022-10-31T02:44:03.428Z,92.12
2022-10-31T02:45:03.520Z,92.14
2022-10-31T02:46:03.413Z,92.19
2022-10-31T02:47:21.719Z,92.18
2022-10-31T02:48:03.403Z,92.17
2022-10-31T02:49:03.445Z,92.09
2022-10-31T02:50:03.355Z,92.06
2022-10-31T02:51:03.356Z,92.14
2022-10-31T02:52:03.333Z,92.20
2022-10-31T02:53:03.424Z,92.19
2022-10-31T02:54:03.304Z,91.99
2022-10-31T02:55:03.387Z,92.00
2022-10-31T02:56:03.276Z,91.97
2022-10-31T02:57:03.304Z,91.90
2022-10-31T02:58:03.531Z,91.85
2022-10-31T02:59:03.366Z,91.81
2022-10-31T03:00:03.218Z,91.71
2022-10-31T03:01:03.476Z,91.75
2022-10-31T03:02:03.331Z,91.85
2022-10-31T03:03:03.553Z,91.90
2022-10-31T03:04:03.167Z,91.91
2022-10-31T03:05:03.207Z,91.83
2022-10-31T03:06:03.155Z,91.94
2022-10-31T03:07:03.175Z,92.01
2022-10-31T03:08:03.118Z,92.01
2022-10-31T03:09:03.184Z,92.08
2022-10-31T03:10:03.086Z,92.10
2022-10-31T03:11:03.157Z,92.16
2022-10-31T03:12:03.063Z,92.09
2022-10-31T03:13:03.273Z,92.11
2022-10-31T03:14:03.041Z,92.15
2022-10-31T03:15:03.128Z,92.17
2022-10-31T03:16:03.006Z,92.16
2022-10-31T03:17:03.095Z,91.97
2022-10-31T03:18:03.235Z,91.70
2022-10-31T03:19:03.047Z,91.68
2022-10-31T03:20:02.956Z,91.69
2022-10-31T03:21:02.965Z,91.68
2022-10-31T03:22:02.927Z,91.58
2022-10-31T03:23:03.036Z,91.50
2022-10-31T03:24:02.903Z,91.53
2022-10-31T03:25:04.990Z,91.78
2022-10-31T03:26:02.887Z,91.92
2022-10-31T03:27:02.909Z,91.97
2022-10-31T03:28:03.353Z,92.07
2022-10-31T03:29:02.977Z,92.16
2022-10-31T03:30:02.827Z,92.07
2022-10-31T03:31:04.855Z,92.13
2022-10-31T03:32:02.798Z,92.16
2022-10-31T03:33:03.040Z,92.04
2022-10-31T03:34:02.769Z,92.00
2022-10-31T03:35:02.818Z,91.91
2022-10-31T03:36:02.748Z,91.94
2022-10-31T03:37:02.742Z,91.90
2022-10-31T03:38:06.850Z,91.91
2022-10-31T03:39:03.699Z,91.89
2022-10-31T03:40:02.794Z,91.83
2022-10-31T03:41:02.697Z,91.71
2022-10-31T03:42:02.718Z,91.71
2022-10-31T03:43:03.007Z,91.75
2022-10-31T03:44:02.727Z,91.81
2022-10-31T03:45:02.627Z,92.00
2022-10-31T03:46:02.644Z,91.94
2022-10-31T03:47:02.607Z,91.97
2022-10-31T03:48:02.940Z,92.10
2022-10-31T03:49:02.569Z,92.11
2022-10-31T03:50:02.676Z,92.05
2022-10-31T03:51:02.556Z,91.80
2022-10-31T03:52:04.706Z,91.65
2022-10-31T03:53:02.539Z,91.66
2022-10-31T03:54:04.631Z,91.63
2022-10-31T03:55:02.493Z,91.69
2022-10-31T03:56:02.501Z,91.88
2022-10-31T03:57:02.461Z,91.98
2022-10-31T03:58:03.198Z,91.94
2022-10-31T03:59:02.467Z,91.80
2022-10-31T04:00:02.531Z,91.79
2022-10-31T04:01:02.442Z,91.87
2022-10-31T04:02:02.520Z,91.78
2022-10-31T04:03:02.669Z,91.69
2022-10-31T04:04:02.458Z,91.54
2022-10-31T04:05:02.377Z,91.60
2022-10-31T04:06:02.456Z,91.46
2022-10-31T04:07:02.336Z,91.51
2022-10-31T04:08:02.487Z,91.68
2022-10-31T04:09:02.309Z,91.74
2022-10-31T04:10:02.417Z,91.75
2022-10-31T04:11:02.305Z,91.65
2022-10-31T04:12:02.367Z,91.64
2022-10-31T04:13:02.616Z,91.67
2022-10-31T04:14:02.387Z,91.81
2022-10-31T04:15:02.219Z,91.80
2022-10-31T04:16:02.327Z,91.76
2022-10-31T04:17:02.218Z,91.83
2022-10-31T04:18:02.750Z,91.83
2022-10-31T04:19:02.168Z,91.66
2022-10-31T04:20:02.320Z,91.53
2022-10-31T04:21:02.140Z,91.42
2022-10-31T04:22:03.205Z,91.45
2022-10-31T04:23:02.138Z,91.57
2022-10-31T04:24:02.277Z,91.53
2022-10-31T04:25:02.087Z,91.41
2022-10-31T04:26:02.198Z,91.43
2022-10-31T04:27:02.066Z,91.39
2022-10-31T04:28:02.555Z,91.49
2022-10-31T04:29:02.071Z,91.53
2022-10-31T04:30:02.176Z,91.60
2022-10-31T04:31:02.009Z,91.57
2022-10-31T04:32:02.119Z,91.73
2022-10-31T04:33:02.355Z,91.90
2022-10-31T04:34:03.260Z,91.94
2022-10-31T04:35:01.981Z,91.83
2022-10-31T04:36:01.969Z,91.70
2022-10-31T04:37:01.940Z,91.72
2022-10-31T04:38:01.988Z,91.70
2022-10-31T04:39:01.906Z,91.84
2022-10-31T04:40:02.017Z,91.82
2022-10-31T04:41:01.908Z,91.81
2022-10-31T04:42:01.916Z,91.80
2022-10-31T04:43:02.282Z,91.72
2022-10-31T04:44:01.930Z,91.72
2022-10-31T04:45:01.830Z,91.71
2022-10-31T04:46:01.844Z,91.62
2022-10-31T04:47:01.819Z,91.68
2022-10-31T04:48:02.094Z,91.54
2022-10-31T04:49:01.771Z,91.49
2022-10-31T04:50:01.876Z,91.61
2022-10-31T04:51:01.767Z,91.70
2022-10-31T04:52:03.879Z,91.67
2022-10-31T04:53:01.747Z,91.61
2022-10-31T04:54:01.796Z,91.56
2022-10-31T04:55:01.700Z,91.55
2022-10-31T04:56:01.709Z,91.41
2022-10-31T04:57:01.664Z,91.35
2022-10-31T04:58:02.058Z,91.25
2022-10-31T04:59:01.662Z,91.30
2022-10-31T05:00:01.744Z,91.30
2022-10-31T05:01:01.663Z,91.35
2022-10-31T05:02:01.809Z,91.39
2022-10-31T05:03:01.822Z,91.50
2022-10-31T05:04:01.670Z,91.65
2022-10-31T05:05:01.577Z,91.79
2022-10-31T05:06:01.576Z,91.90
2022-10-31T05:07:01.538Z,91.91
2022-10-31T05:08:01.592Z,91.90
2022-10-31T05:09:01.658Z,91.76
2022-10-31T05:10:01.608Z,91.81
2022-10-31T05:11:04.212Z,91.80
2022-10-31T05:12:01.520Z,91.90
2022-10-31T05:13:02.103Z,91.94
2022-10-31T05:14:01.529Z,91.95
2022-10-31T05:15:01.429Z,91.94
2022-10-31T05:16:01.443Z,91.91
2022-10-31T05:17:01.417Z,91.79
2022-10-31T05:18:01.837Z,91.82
2022-10-31T05:19:01.369Z,91.94
2022-10-31T05:20:01.478Z,92.03
2022-10-31T05:21:01.349Z,92.03
2022-10-31T05:22:01.388Z,92.07
2022-10-31T05:23:01.352Z,92.08
2022-10-31T05:24:01.397Z,92.06
2022-10-31T05:25:01.300Z,91.99
2022-10-31T05:26:01.312Z,91.90
2022-10-31T05:27:01.261Z,91.90
2022-10-31T05:28:01.680Z,91.96
2022-10-31T05:29:01.268Z,92.06
2022-10-31T05:30:01.379Z,92.12
2022-10-31T05:31:01.219Z,92.15
2022-10-31T05:32:01.258Z,91.93
2022-10-31T05:33:01.464Z,91.77
2022-10-31T05:34:01.267Z,91.81
2022-10-31T05:35:01.183Z,91.99
2022-10-31T05:36:01.180Z,91.93
2022-10-31T05:37:01.129Z,92.08
2022-10-31T05:38:01.192Z,91.94
2022-10-31T05:39:01.111Z,91.82
2022-10-31T05:40:05.392Z,91.85
2022-10-31T05:41:02.126Z,91.96
2022-10-31T05:42:01.119Z,92.15
2022-10-31T05:43:01.385Z,92.17
2022-10-31T05:44:01.138Z,92.11
2022-10-31T05:45:01.027Z,91.96
2022-10-31T05:46:01.047Z,91.95
2022-10-31T05:47:01.028Z,92.25
2022-10-31T05:48:01.403Z,92.36
2022-10-31T05:49:02.923Z,92.43
2022-10-31T05:50:00.971Z,92.46
2022-10-31T05:51:00.951Z,92.42
2022-10-31T05:52:00.988Z,92.30
2022-10-31T05:53:01.218Z,92.14
2022-10-31T05:54:01.008Z,92.03
2022-10-31T05:55:00.988Z,91.85
2022-10-31T05:56:00.921Z,91.81
2022-10-31T05:57:00.859Z,91.88
2022-10-31T05:58:01.373Z,91.77
2022-10-31T05:59:00.868Z,91.69
2022-10-31T06:00:00.947Z,91.68
2022-10-31T06:01:00.816Z,91.82
2022-10-31T06:02:00.858Z,92.05
2022-10-31T06:03:00.882Z,92.11
2022-10-31T06:04:00.886Z,91.95
2022-10-31T06:05:00.874Z,91.88
2022-10-31T06:06:00.781Z,91.86
2022-10-31T06:07:00.730Z,91.94
2022-10-31T06:08:01.209Z,91.87
2022-10-31T06:09:00.712Z,91.85
2022-10-31T06:10:00.712Z,91.66
2022-10-31T06:11:00.709Z,91.48
2022-10-31T06:12:00.728Z,91.67
2022-10-31T06:13:00.656Z,91.75
2022-10-31T06:14:00.744Z,91.78
2022-10-31T06:15:00.626Z,91.92
2022-10-31T06:16:00.758Z,91.90
2022-10-31T06:17:00.619Z,91.86
2022-10-31T06:18:01.061Z,91.86
2022-10-31T06:19:00.576Z,91.85
2022-10-31T06:20:00.581Z,91.83
2022-10-31T06:21:00.547Z,91.88
2022-10-31T06:22:00.607Z,92.02
2022-10-31T06:23:00.913Z,92.19
2022-10-31T06:24:00.608Z,92.36
2022-10-31T06:25:00.516Z,92.30
2022-10-31T06:26:21.519Z,92.21
2022-10-31T06:27:00.459Z,92.20
2022-10-31T06:28:01.251Z,92.08
2022-10-31T06:29:03.985Z,92.01
2022-10-31T06:30:00.428Z,91.88
2022-10-31T06:31:00.456Z,91.85
2022-10-31T06:32:00.400Z,91.90
2022-10-31T06:33:00.766Z,92.09
2022-10-31T06:34:00.379Z,92.21
2022-10-31T06:35:00.437Z,92.24
2022-10-31T06:36:00.352Z,92.11
2022-10-31T06:37:00.400Z,92.16
2022-10-31T06:38:00.792Z,92.14
2022-10-31T06:39:00.408Z,92.07
2022-10-31T06:40:00.295Z,92.16
2022-10-31T06:41:00.380Z,92.25
2022-10-31T06:42:00.279Z,92.15
2022-10-31T06:43:00.338Z,92.15
2022-10-31T06:44:04.894Z,92.22
2022-10-31T06:45:01.237Z,92.26
2022-10-31T06:46:00.262Z,92.27
2022-10-31T06:47:00.229Z,92.38
2022-10-31T06:48:17.739Z,92.32
2022-10-31T06:49:01.179Z,92.27
2022-10-31T06:50:01.212Z,92.17
2022-10-31T06:51:00.916Z,92.10
2022-10-31T06:52:01.228Z,92.12
2022-10-31T06:53:00.269Z,92.15
2022-10-31T06:54:00.211Z,92.09
2022-10-31T06:55:00.097Z,92.11
2022-10-31T06:56:00.128Z,92.04
2022-10-31T06:57:00.082Z,91.96
2022-10-31T06:58:02.896Z,91.92
2022-10-31T06:59:00.063Z,92.01
2022-10-31T07:00:00.051Z,92.03
2022-10-31T07:01:00.069Z,92.07
2022-10-31T07:02:00.188Z,92.10
2022-10-31T07:02:59.996Z,91.98
2022-10-31T07:04:00.079Z,91.85
2022-10-31T07:04:59.990Z,91.82
2022-10-31T07:05:59.992Z,91.68
2022-10-31T07:06:59.942Z,91.81
2022-10-31T07:08:00.398Z,91.94
2022-10-31T07:08:59.919Z,91.93
2022-10-31T07:09:59.976Z,91.81
2022-10-31T07:10:59.925Z,91.76
2022-10-31T07:11:59.932Z,91.82
2022-10-31T07:13:00.184Z,91.74
2022-10-31T07:14:20.948Z,91.71
2022-10-31T07:14:59.849Z,91.68
2022-10-31T07:15:59.859Z,91.34
2022-10-31T07:16:59.838Z,91.16
2022-10-31T07:17:59.880Z,91.24
2022-10-31T07:18:59.789Z,91.31
2022-10-31T07:19:59.790Z,91.36
2022-10-31T07:20:59.749Z,91.50
2022-10-31T07:21:59.809Z,91.63
2022-10-31T07:23:00.132Z,91.60
2022-10-31T07:23:59.817Z,91.55
2022-10-31T07:24:59.698Z,91.69
2022-10-31T07:25:59.729Z,91.51
2022-10-31T07:28:00.123Z,91.87
2022-10-31T07:28:59.668Z,92.13
2022-10-31T07:29:59.657Z,92.27
2022-10-31T07:30:59.628Z,92.18
2022-10-31T07:32:00.689Z,92.13
2022-10-31T07:32:59.592Z,92.35
2022-10-31T07:33:59.679Z,92.46
2022-10-31T07:34:59.599Z,92.27
2022-10-31T07:35:59.600Z,92.06
2022-10-31T07:36:59.540Z,91.89
2022-10-31T07:37:59.869Z,91.66
2022-10-31T07:38:59.517Z,91.81
2022-10-31T07:39:59.519Z,91.66
2022-10-31T07:40:59.508Z,91.23
2022-10-31T07:41:59.536Z,91.39
2022-10-31T07:42:59.460Z,91.70
2022-10-31T07:43:59.549Z,91.89
2022-10-31T07:44:59.436Z,92.06
2022-10-31T07:45:59.468Z,92.17
2022-10-31T07:46:59.429Z,92.30
2022-10-31T07:47:59.862Z,92.28
2022-10-31T07:48:59.381Z,92.21
2022-10-31T07:50:00.431Z,91.94
2022-10-31T07:50:59.362Z,91.92
2022-10-31T07:51:59.410Z,92.05
2022-10-31T07:52:59.351Z,91.65
2022-10-31T07:53:59.420Z,91.47
2022-10-31T07:54:59.299Z,91.59
2022-10-31T07:55:59.331Z,91.64
2022-10-31T07:56:59.272Z,91.73
2022-10-31T07:57:59.821Z,91.59
2022-10-31T07:58:59.270Z,91.53
2022-10-31T07:59:59.260Z,91.50
2022-10-31T08:00:59.326Z,91.64
2022-10-31T08:01:59.270Z,91.92
2022-10-31T08:02:59.553Z,92.01
2022-10-31T08:03:59.300Z,91.75
2022-10-31T08:05:01.313Z,91.23
2022-10-31T08:05:59.204Z,91.22
2022-10-31T08:06:59.151Z,91.37
2022-10-31T08:08:00.556Z,91.44
2022-10-31T08:08:59.133Z,91.57
2022-10-31T08:09:59.130Z,91.65
2022-10-31T08:10:59.111Z,91.78
2022-10-31T08:11:59.144Z,91.88
2022-10-31T08:12:59.060Z,91.81
2022-10-31T08:13:59.172Z,91.36
2022-10-31T08:14:59.040Z,91.12
2022-10-31T08:16:00.147Z,91.34
2022-10-31T08:16:59.039Z,91.22
2022-10-31T08:18:00.450Z,91.11
2022-10-31T08:18:58.993Z,91.27
2022-10-31T08:19:59.000Z,91.06
2022-10-31T08:20:58.951Z,90.59
2022-10-31T08:21:59.007Z,90.48
2022-10-31T08:22:58.961Z,90.69
2022-10-31T08:23:59.019Z,90.83
2022-10-31T08:24:58.892Z,90.55
2022-10-31T08:25:58.934Z,90.71
2022-10-31T08:26:58.863Z,90.93
2022-10-31T08:27:59.264Z,91.08
2022-10-31T08:28:58.882Z,90.91
2022-10-31T08:29:58.860Z,90.65
2022-10-31T08:30:58.822Z,90.77
2022-10-31T08:31:58.880Z,91.30
2022-10-31T08:32:58.781Z,91.70
2022-10-31T08:33:58.889Z,91.64
2022-10-31T08:34:58.795Z,91.45
2022-10-31T08:36:00.906Z,91.04
2022-10-31T08:36:58.749Z,91.04
2022-10-31T08:37:59.147Z,91.18
2022-10-31T08:39:01.885Z,91.07
2022-10-31T08:39:58.852Z,90.89
2022-10-31T08:40:58.692Z,90.86
2022-10-31T08:43:08.488Z,90.67
2022-10-31T08:44:08.369Z,90.69
2022-10-31T08:45:08.407Z,90.42
2022-10-31T08:46:08.366Z,90.34
2022-10-31T08:47:08.408Z,90.21
2022-10-31T08:48:08.317Z,90.27
2022-10-31T08:49:08.329Z,90.29
2022-10-31T08:50:08.293Z,90.43
2022-10-31T08:51:08.341Z,90.40
2022-10-31T08:52:12.035Z,90.69
2022-10-31T08:53:09.260Z,90.86
2022-10-31T08:54:08.259Z,90.82
2022-10-31T08:55:08.220Z,90.89
2022-10-31T08:56:09.319Z,90.83
2022-10-31T08:57:08.196Z,90.86
2022-10-31T08:58:08.223Z,91.16
2022-10-31T08:59:08.161Z,91.28
2022-10-31T09:00:08.192Z,91.37
2022-10-31T09:01:08.245Z,91.35
2022-10-31T09:02:08.229Z,91.03
2022-10-31T09:03:08.121Z,91.14
2022-10-31T09:04:08.192Z,90.88
2022-10-31T09:05:08.092Z,90.77
2022-10-31T09:06:09.239Z,90.89
2022-10-31T09:07:23.277Z,91.07
2022-10-31T09:08:14.827Z,90.91
2022-10-31T09:09:09.042Z,90.50
2022-10-31T09:10:08.070Z,90.46
2022-10-31T09:11:07.999Z,90.79
2022-10-31T09:12:08.076Z,91.29
2022-10-31T09:13:07.981Z,91.15
2022-10-31T09:14:09.021Z,90.77
2022-10-31T09:15:07.970Z,90.83
2022-10-31T09:16:08.028Z,90.86
2022-10-31T09:17:07.922Z,90.78
2022-10-31T09:18:08.017Z,90.89
2022-10-31T09:19:11.392Z,90.92
2022-10-31T09:20:07.883Z,90.68
2022-10-31T09:21:07.999Z,90.73
2022-10-31T09:22:07.862Z,90.77
2022-10-31T09:23:07.978Z,91.00
2022-10-31T09:24:07.831Z,91.15
2022-10-31T09:25:07.861Z,91.06
2022-10-31T09:26:07.819Z,91.04
2022-10-31T09:27:07.830Z,91.27
2022-10-31T09:28:07.970Z,91.14
2022-10-31T09:29:07.940Z,91.18
2022-10-31T09:30:08.343Z,91.38
2022-10-31T09:31:07.931Z,91.39
2022-10-31T09:32:07.851Z,91.13
2022-10-31T09:33:08.421Z,91.21
2022-10-31T09:34:08.329Z,91.29
2022-10-31T09:35:07.794Z,91.21
2022-10-31T09:36:07.663Z,91.15
2022-10-31T09:37:09.208Z,91.26
2022-10-31T09:38:07.940Z,91.43
2022-10-31T09:39:07.726Z,91.26
2022-10-31T09:40:07.721Z,91.11
2022-10-31T09:41:07.692Z,90.76
2022-10-31T09:42:07.646Z,90.82
2022-10-31T09:43:07.690Z,91.03
2022-10-31T09:44:07.568Z,91.14
2022-10-31T09:45:07.660Z,90.92
2022-10-31T09:46:07.730Z,90.98
2022-10-31T09:47:07.623Z,91.08
2022-10-31T09:48:07.561Z,91.28
2022-10-31T09:49:07.574Z,90.74
2022-10-31T09:50:07.591Z,89.99
2022-10-31T09:51:08.620Z,90.17
2022-10-31T09:52:07.594Z,90.25
2022-10-31T09:53:07.883Z,90.12
2022-10-31T09:54:07.433Z,90.25
2022-10-31T09:55:07.473Z,90.41
2022-10-31T09:56:07.688Z,90.44
2022-10-31T09:57:07.429Z,90.34
2022-10-31T09:58:07.456Z,90.26
2022-10-31T09:59:07.643Z,90.41
2022-10-31T10:00:07.413Z,90.49
2022-10-31T10:01:10.140Z,90.38
2022-10-31T10:02:07.454Z,90.68
2022-10-31T10:03:07.380Z,90.60
2022-10-31T10:04:07.464Z,90.68
2022-10-31T10:05:07.341Z,90.26
2022-10-31T10:06:07.262Z,89.68
2022-10-31T10:07:07.366Z,89.95
2022-10-31T10:08:07.270Z,90.59
2022-10-31T10:09:08.683Z,90.73
2022-10-31T10:10:07.306Z,90.65
2022-10-31T10:11:07.332Z,90.79
2022-10-31T10:12:09.148Z,90.58
2022-10-31T10:13:09.353Z,90.54
2022-10-31T10:14:07.221Z,90.68
2022-10-31T10:15:08.673Z,91.03
2022-10-31T10:16:07.478Z,91.12
2022-10-31T10:17:07.283Z,90.68
2022-10-31T10:18:07.109Z,90.49
2022-10-31T10:19:09.221Z,90.00
2022-10-31T10:20:07.071Z,90.14
2022-10-31T10:21:07.188Z,90.25
2022-10-31T10:22:07.545Z,90.14
2022-10-31T10:23:07.330Z,89.91
2022-10-31T10:24:07.081Z,90.17
2022-10-31T10:25:07.302Z,90.50
2022-10-31T10:26:11.130Z,90.56
2022-10-31T10:27:07.193Z,90.53
2022-10-31T10:28:07.875Z,90.39
2022-10-31T10:29:07.262Z,90.19
2022-10-31T10:30:08.092Z,90.06
2022-10-31T10:31:07.087Z,90.41
2022-10-31T10:32:07.101Z,90.03
2022-10-31T10:33:06.932Z,89.91
2022-10-31T10:34:06.944Z,90.05
2022-10-31T10:35:06.870Z,90.38
2022-10-31T10:36:28.188Z,90.28
2022-10-31T10:37:07.055Z,90.10
2022-10-31T10:38:09.290Z,90.31
2022-10-31T10:39:07.142Z,90.34
2022-10-31T10:40:27.873Z,90.11
2022-10-31T10:41:06.794Z,90.14
2022-10-31T10:42:06.905Z,89.93
2022-10-31T10:43:06.762Z,89.68
2022-10-31T10:44:06.811Z,89.86
2022-10-31T10:45:06.764Z,90.03
2022-10-31T10:46:09.336Z,90.06
2022-10-31T10:47:07.703Z,89.97
2022-10-31T10:48:06.783Z,89.82
2022-10-31T10:49:06.770Z,90.10
2022-10-31T10:50:07.931Z,90.24
2022-10-31T10:51:12.584Z,90.30
2022-10-31T10:52:20.116Z,89.91
2022-10-31T10:53:08.172Z,89.89
2022-10-31T10:54:10.580Z,89.86
2022-10-31T10:55:08.485Z,89.62
2022-10-31T10:56:06.840Z,89.71
2022-10-31T10:57:06.880Z,89.41
2022-10-31T10:58:07.931Z,89.54
2022-10-31T10:59:07.003Z,89.63
2022-10-31T11:00:07.453Z,89.38
2022-10-31T11:01:10.604Z,89.32
2022-10-31T11:02:06.501Z,89.07
2022-10-31T11:03:07.008Z,89.20
2022-10-31T11:04:09.378Z,89.53
2022-10-31T11:05:07.506Z,89.77
2022-10-31T11:06:06.573Z,90.09
2022-10-31T11:07:06.706Z,89.66
2022-10-31T11:08:07.017Z,89.82
2022-10-31T11:09:08.030Z,89.45
2022-10-31T11:10:06.715Z,89.40
2022-10-31T11:11:07.424Z,89.63
2022-10-31T11:12:06.499Z,90.20
2022-10-31T11:13:06.525Z,90.34
2022-10-31T11:14:06.545Z,90.21
2022-10-31T11:15:07.807Z,90.10
2022-10-31T11:16:06.429Z,90.10
2022-10-31T11:17:06.330Z,90.14
2022-10-31T11:18:09.508Z,90.11
2022-10-31T11:19:06.816Z,90.04
2022-10-31T11:20:07.218Z,89.76
2022-10-31T11:21:08.011Z,89.77
2022-10-31T11:22:07.695Z,89.73
2022-10-31T11:23:06.973Z,89.16
2022-10-31T11:24:06.373Z,88.98
2022-10-31T11:25:06.366Z,89.04
2022-10-31T11:26:06.557Z,89.28
2022-10-31T11:27:07.393Z,89.58
2022-10-31T11:28:06.165Z,89.96
2022-10-31T11:29:06.212Z,89.96
2022-10-31T11:30:06.134Z,89.99
2022-10-31T11:31:06.231Z,90.24
2022-10-31T11:32:06.112Z,90.20
2022-10-31T11:33:06.197Z,90.04
2022-10-31T11:34:06.083Z,89.55
2022-10-31T11:35:06.151Z,89.52
2022-10-31T11:36:06.054Z,89.96
2022-10-31T11:37:06.065Z,90.39
2022-10-31T11:38:06.024Z,90.17
2022-10-31T11:39:06.139Z,89.72
2022-10-31T11:40:06.004Z,89.44
2022-10-31T11:41:06.092Z,89.77
2022-10-31T11:42:08.892Z,89.67
2022-10-31T11:43:06.112Z,89.66
2022-10-31T11:44:05.943Z,89.28
2022-10-31T11:45:06.079Z,89.31
2022-10-31T11:46:05.929Z,89.43
2022-10-31T11:47:06.952Z,89.64
2022-10-31T11:48:06.098Z,89.78
2022-10-31T11:49:05.954Z,89.73
2022-10-31T11:50:05.909Z,89.88
2022-10-31T11:51:08.545Z,89.60
2022-10-31T11:52:06.330Z,89.47
2022-10-31T11:53:07.109Z,89.76
2022-10-31T11:54:05.852Z,89.96
2022-10-31T11:55:06.129Z,90.30
2022-10-31T11:56:05.900Z,90.41
2022-10-31T11:57:06.094Z,90.40
2022-10-31T11:58:05.814Z,89.75
2022-10-31T11:59:06.084Z,89.78
2022-10-31T12:00:06.668Z,88.94
2022-10-31T12:01:06.788Z,88.69
2022-10-31T12:02:07.536Z,89.12
2022-10-31T12:03:06.278Z,89.26
2022-10-31T12:04:06.620Z,89.44
2022-10-31T12:05:06.094Z,89.82
2022-10-31T12:06:06.958Z,89.99
2022-10-31T12:07:06.075Z,89.06
2022-10-31T12:08:06.703Z,89.06
2022-10-31T12:09:05.638Z,89.19
2022-10-31T12:10:05.756Z,89.45
2022-10-31T12:11:05.573Z,89.65
2022-10-31T12:12:06.643Z,89.71
2022-10-31T12:13:05.553Z,90.06
2022-10-31T12:14:05.615Z,89.89
2022-10-31T12:15:05.552Z,89.76
2022-10-31T12:16:05.537Z,88.97
2022-10-31T12:17:05.494Z,88.73
2022-10-31T12:18:05.544Z,89.24
2022-10-31T12:19:05.474Z,89.35
2022-10-31T12:20:05.554Z,89.64
2022-10-31T12:21:05.463Z,89.40
2022-10-31T12:22:05.464Z,89.40
2022-10-31T12:23:05.426Z,89.10
2022-10-31T12:24:05.483Z,89.06
2022-10-31T12:25:06.175Z,89.40
2022-10-31T12:26:05.395Z,89.83
2022-10-31T12:27:05.403Z,89.90
2022-10-31T12:28:05.413Z,89.91
2022-10-31T12:29:05.341Z,89.94
2022-10-31T12:30:28.414Z,89.66
2022-10-31T12:31:05.329Z,89.80
2022-10-31T12:32:05.341Z,89.67
2022-10-31T12:33:05.314Z,89.24
2022-10-31T12:34:06.384Z,89.00
2022-10-31T12:35:05.255Z,89.29
2022-10-31T12:36:05.272Z,89.16
2022-10-31T12:37:05.225Z,89.16
2022-10-31T12:38:05.273Z,89.48
2022-10-31T12:39:05.236Z,89.69
2022-10-31T12:40:05.352Z,89.54
2022-10-31T12:41:05.183Z,89.09
2022-10-31T12:42:05.207Z,89.12
2022-10-31T12:43:05.151Z,89.20
2022-10-31T12:44:05.836Z,89.17
2022-10-31T12:45:05.156Z,89.18
2022-10-31T12:46:05.135Z,88.72
2022-10-31T12:47:05.106Z,88.44
2022-10-31T12:48:05.154Z,88.82
2022-10-31T12:49:05.080Z,88.84
2022-10-31T12:50:05.165Z,89.01
2022-10-31T12:51:05.064Z,89.49
2022-10-31T12:52:05.076Z,89.17
2022-10-31T12:53:05.124Z,88.88
2022-10-31T12:54:05.086Z,88.78